Flight Track Log - Related Links

Times and Time Zones

All times are in EDT time to prevent confusion due to time zone crossing. See the N52944 flight status page for this flight to view local times or setup timezone preferences in your user account.

Time Position Orientation Groundspeed Altitude Reporting Facility
EDT Latitude Longitude Course Direction KTS MPH feet Rate Location/Type
Mon 01:01:50 PM 34.7200 -80.8825 314° West 71 82 1,300  Level Atlanta Center
Mon 01:02:45 PM 34.7372 -80.9044 314° West 97 112 2,000 818 Climbing Atlanta Center
Mon 01:03:40 PM 34.7544 -80.9242 317° Northwest 96 110 2,800 492 Climbing Atlanta Center
Mon 01:04:47 PM 34.7678 -80.9564 297° West 102 117 3,000 393 Climbing Atlanta Center
Mon 01:05:42 PM 34.7892 -80.9808 317° Northwest 119 137 3,600 492 Climbing Atlanta Center
Mon 01:06:49 PM 34.8200 -80.9597 29° Northeast 124 143 4,000 188 Climbing Atlanta Center
Mon 01:07:50 PM 34.8506 -80.9281 40° Northeast 142 163 4,000  Level Atlanta Center
Mon 01:08:51 PM 34.8831 -80.8992 36° Northeast 148 170 4,000  Level Atlanta Center
Mon 01:09:52 PM 34.9156 -80.8572 47° Northeast 147 169 4,000  Level Atlanta Center
Mon 01:10:59 PM 34.9417 -80.8183 51° Northeast 145 167 4,000  Level Atlanta Center
Mon 01:11:48 PM 34.9639 -80.7894 47° Northeast 142 163 4,000  Level Atlanta Center
Mon 01:13:01 PM 34.9958 -80.7428 50° Northeast 143 165 4,000  Level Atlanta Center
Mon 01:13:50 PM 35.0181 -80.7164 44° Northeast 146 168 4,000  Level Atlanta Center
Mon 01:14:52 PM 35.0464 -80.6797 47° Northeast 145 167 4,000  Level Atlanta Center
Mon 01:15:53 PM 35.0767 -80.6456 43° Northeast 140 161 4,000  Level Atlanta Center
Mon 01:16:54 PM 35.1117 -80.6239 27° Northeast 144 166 4,000  Level Atlanta Center
Mon 01:17:55 PM 35.1486 -80.6019 26° Northeast 145 167 4,000  Level Atlanta Center
Mon 01:19:02 PM 35.1894 -80.5750 28° Northeast 146 168 4,000  Level Atlanta Center
Mon 01:20:03 PM 35.2264 -80.5556 23° Northeast 145 167 4,000  Level Atlanta Center
Mon 01:21:04 PM 35.2633 -80.5336 26° Northeast 145 167 4,000  Level Atlanta Center
Mon 01:22:06 PM 35.3053 -80.5394 354° North 143 165 4,000  Level Atlanta Center
Mon 01:23:07 PM 35.3431 -80.5431 356° North 141 162 4,000  Level Atlanta Center
Mon 01:24:14 PM 35.3850 -80.5514 351° North 139 160 4,000  Level Atlanta Center
Mon 01:25:09 PM 35.4228 -80.5600 349° North 139 160 4,000  Level Atlanta Center
Mon 01:26:16 PM 35.4625 -80.5633 356° North 137 158 4,000 -49 Level Atlanta Center
Mon 01:27:12 PM 35.4983 -80.5719 349° North 140 161 3,900 -205 Descending Atlanta Center
Mon 01:28:13 PM 35.5400 -80.5781 353° North 143 165 3,600 -393 Descending Atlanta Center
Mon 01:29:14 PM 35.5800 -80.5864 350° North 141 162 3,100 -293 Descending Atlanta Center
Mon 01:30:16 PM 35.6058 -80.6136 319° Northwest 126 145 3,000 -49 Descending Atlanta Center
Mon 01:31:17 PM 35.6256 -80.6511 303° West 125 144 3,000  Level Atlanta Center
Mon 01:32:12 PM 35.6411 -80.6861 299° West 130 150 3,000  Level Atlanta Center
Mon 01:33:25 PM 35.6653 -80.7311 303° West 130 150 3,000  Level Atlanta Center
Mon 01:34:26 PM 35.6853 -80.7739 300° West 155 178 3,000  Level Atlanta Center
Mon 01:35:28 PM 35.7131 -80.8008 322° Northwest 133 153 3,000 -49 Level Atlanta Center
Mon 01:36:29 PM 35.7450 -80.8250 328° Northwest 129 148 2,900 -98 Descending Atlanta Center

Login

Don't have an account? Register now (free) for customized features, flight alerts, and more!